sensor_id;sensor_type;location;lat;lon;timestamp;P1;durP1;ratioP1;P2;durP2;ratioP2
64029;SDS011;50277;52.064;4.492;2023-09-30T00:00:23;12.10;;;4.82;;
64029;SDS011;50277;52.064;4.492;2023-09-30T00:02:49;15.45;;;4.65;;
64029;SDS011;50277;52.064;4.492;2023-09-30T00:05:15;14.25;;;4.63;;
64029;SDS011;50277;52.064;4.492;2023-09-30T00:07:40;10.77;;;5.03;;
64029;SDS011;50277;52.064;4.492;2023-09-30T00:10:05;9.48;;;4.43;;
64029;SDS011;50277;52.064;4.492;2023-09-30T00:12:31;9.20;;;4.72;;
64029;SDS011;50277;52.064;4.492;2023-09-30T00:14:57;10.65;;;4.50;;
64029;SDS011;50277;52.064;4.492;2023-09-30T00:17:22;12.48;;;4.63;;
64029;SDS011;50277;52.064;4.492;2023-09-30T00:19:47;13.30;;;4.60;;
64029;SDS011;50277;52.064;4.492;2023-09-30T00:22:13;11.52;;;5.15;;
64029;SDS011;50277;52.064;4.492;2023-09-30T00:24:38;7.00;;;3.88;;
64029;SDS011;50277;52.064;4.492;2023-09-30T00:27:03;10.25;;;4.18;;
64029;SDS011;50277;52.064;4.492;2023-09-30T00:29:29;13.68;;;4.90;;
64029;SDS011;50277;52.064;4.492;2023-09-30T00:31:54;11.15;;;4.57;;
64029;SDS011;50277;52.064;4.492;2023-09-30T00:34:19;15.32;;;4.43;;
64029;SDS011;50277;52.064;4.492;2023-09-30T00:36:44;11.27;;;4.30;;
64029;SDS011;50277;52.064;4.492;2023-09-30T00:39:10;9.00;;;4.07;;
64029;SDS011;50277;52.064;4.492;2023-09-30T00:41:35;13.50;;;4.68;;
64029;SDS011;50277;52.064;4.492;2023-09-30T00:44:01;11.30;;;4.43;;
64029;SDS011;50277;52.064;4.492;2023-09-30T00:46:31;7.95;;;4.25;;
64029;SDS011;50277;52.064;4.492;2023-09-30T00:49:01;7.18;;;3.45;;
64029;SDS011;50277;52.064;4.492;2023-09-30T00:51:27;10.35;;;4.15;;
64029;SDS011;50277;52.064;4.492;2023-09-30T00:53:53;10.48;;;4.50;;
64029;SDS011;50277;52.064;4.492;2023-09-30T00:56:20;9.07;;;4.22;;
64029;SDS011;50277;52.064;4.492;2023-09-30T00:58:48;13.77;;;4.70;;
64029;SDS011;50277;52.064;4.492;2023-09-30T01:01:17;12.85;;;4.75;;
64029;SDS011;50277;52.064;4.492;2023-09-30T01:03:43;10.70;;;4.68;;
64029;SDS011;50277;52.064;4.492;2023-09-30T01:06:09;9.20;;;4.30;;
64029;SDS011;50277;52.064;4.492;2023-09-30T01:08:35;6.60;;;4.07;;
64029;SDS011;50277;52.064;4.492;2023-09-30T01:11:00;9.35;;;4.50;;
64029;SDS011;50277;52.064;4.492;2023-09-30T01:13:35;12.25;;;4.85;;
64029;SDS011;50277;52.064;4.492;2023-09-30T01:16:08;14.40;;;4.50;;
64029;SDS011;50277;52.064;4.492;2023-09-30T01:18:37;10.57;;;4.50;;
64029;SDS011;50277;52.064;4.492;2023-09-30T01:21:04;17.55;;;5.57;;
64029;SDS011;50277;52.064;4.492;2023-09-30T01:23:30;8.40;;;4.43;;
64029;SDS011;50277;52.064;4.492;2023-09-30T01:25:56;14.55;;;5.07;;
64029;SDS011;50277;52.064;4.492;2023-09-30T01:28:22;10.95;;;4.50;;
64029;SDS011;50277;52.064;4.492;2023-09-30T01:30:48;11.38;;;4.43;;
64029;SDS011;50277;52.064;4.492;2023-09-30T01:33:13;11.00;;;4.78;;
64029;SDS011;50277;52.064;4.492;2023-09-30T01:35:39;10.90;;;4.35;;
64029;SDS011;50277;52.064;4.492;2023-09-30T01:38:04;11.35;;;5.03;;
64029;SDS011;50277;52.064;4.492;2023-09-30T01:40:29;14.05;;;5.22;;
64029;SDS011;50277;52.064;4.492;2023-09-30T01:42:55;9.38;;;4.72;;
64029;SDS011;50277;52.064;4.492;2023-09-30T01:45:21;13.43;;;4.65;;
64029;SDS011;50277;52.064;4.492;2023-09-30T01:47:46;10.05;;;5.00;;
64029;SDS011;50277;52.064;4.492;2023-09-30T01:50:12;8.90;;;4.95;;
64029;SDS011;50277;52.064;4.492;2023-09-30T01:52:37;11.70;;;4.90;;
64029;SDS011;50277;52.064;4.492;2023-09-30T01:55:03;17.42;;;5.25;;
64029;SDS011;50277;52.064;4.492;2023-09-30T01:57:28;12.70;;;5.22;;
64029;SDS011;50277;52.064;4.492;2023-09-30T01:59:53;16.67;;;5.88;;
64029;SDS011;50277;52.064;4.492;2023-09-30T02:02:19;15.60;;;5.35;;
64029;SDS011;50277;52.064;4.492;2023-09-30T02:04:44;13.90;;;5.57;;
64029;SDS011;50277;52.064;4.492;2023-09-30T02:07:09;13.23;;;5.30;;
64029;SDS011;50277;52.064;4.492;2023-09-30T02:09:35;15.77;;;4.95;;
64029;SDS011;50277;52.064;4.492;2023-09-30T02:12:01;13.35;;;4.97;;
64029;SDS011;50277;52.064;4.492;2023-09-30T02:14:27;12.85;;;5.10;;
64029;SDS011;50277;52.064;4.492;2023-09-30T02:16:52;20.45;;;4.97;;
64029;SDS011;50277;52.064;4.492;2023-09-30T02:19:18;11.77;;;5.20;;
64029;SDS011;50277;52.064;4.492;2023-09-30T02:21:44;14.20;;;5.40;;
64029;SDS011;50277;52.064;4.492;2023-09-30T02:24:10;14.95;;;5.47;;
64029;SDS011;50277;52.064;4.492;2023-09-30T02:26:35;14.32;;;6.38;;
64029;SDS011;50277;52.064;4.492;2023-09-30T02:29:00;13.13;;;6.13;;
64029;SDS011;50277;52.064;4.492;2023-09-30T02:31:26;11.00;;;5.50;;
64029;SDS011;50277;52.064;4.492;2023-09-30T02:33:51;11.68;;;6.20;;
64029;SDS011;50277;52.064;4.492;2023-09-30T02:36:16;13.63;;;6.43;;
64029;SDS011;50277;52.064;4.492;2023-09-30T02:38:42;14.93;;;6.30;;
64029;SDS011;50277;52.064;4.492;2023-09-30T02:41:08;12.15;;;6.32;;
64029;SDS011;50277;52.064;4.492;2023-09-30T02:43:33;13.70;;;6.13;;
64029;SDS011;50277;52.064;4.492;2023-09-30T02:45:59;13.27;;;6.55;;
64029;SDS011;50277;52.064;4.492;2023-09-30T02:48:24;12.02;;;6.53;;
64029;SDS011;50277;52.064;4.492;2023-09-30T02:50:50;11.52;;;6.50;;
64029;SDS011;50277;52.064;4.492;2023-09-30T02:53:15;10.68;;;6.00;;
64029;SDS011;50277;52.064;4.492;2023-09-30T02:55:41;10.80;;;5.82;;
64029;SDS011;50277;52.064;4.492;2023-09-30T02:58:07;15.25;;;7.13;;
64029;SDS011;50277;52.064;4.492;2023-09-30T03:00:33;14.68;;;6.60;;
64029;SDS011;50277;52.064;4.492;2023-09-30T03:03:03;11.02;;;6.55;;
64029;SDS011;50277;52.064;4.492;2023-09-30T03:05:28;14.40;;;6.43;;
64029;SDS011;50277;52.064;4.492;2023-09-30T03:07:57;13.95;;;6.60;;
64029;SDS011;50277;52.064;4.492;2023-09-30T03:10:22;15.50;;;7.10;;
64029;SDS011;50277;52.064;4.492;2023-09-30T03:12:54;14.55;;;7.18;;
64029;SDS011;50277;52.064;4.492;2023-09-30T03:15:20;22.83;;;7.90;;
64029;SDS011;50277;52.064;4.492;2023-09-30T03:17:46;12.57;;;7.45;;
64029;SDS011;50277;52.064;4.492;2023-09-30T03:20:11;12.20;;;7.80;;
64029;SDS011;50277;52.064;4.492;2023-09-30T03:22:40;12.20;;;6.60;;
64029;SDS011;50277;52.064;4.492;2023-09-30T03:25:07;16.25;;;7.53;;
64029;SDS011;50277;52.064;4.492;2023-09-30T03:27:34;14.15;;;7.55;;
64029;SDS011;50277;52.064;4.492;2023-09-30T03:30:01;20.13;;;8.35;;
64029;SDS011;50277;52.064;4.492;2023-09-30T03:32:28;15.02;;;7.32;;
64029;SDS011;50277;52.064;4.492;2023-09-30T03:34:54;13.48;;;6.75;;
64029;SDS011;50277;52.064;4.492;2023-09-30T03:37:24;13.98;;;7.32;;
64029;SDS011;50277;52.064;4.492;2023-09-30T03:39:51;15.60;;;7.47;;
64029;SDS011;50277;52.064;4.492;2023-09-30T03:42:18;16.52;;;7.93;;
64029;SDS011;50277;52.064;4.492;2023-09-30T03:44:43;15.05;;;8.10;;
64029;SDS011;50277;52.064;4.492;2023-09-30T03:47:08;16.45;;;8.30;;
64029;SDS011;50277;52.064;4.492;2023-09-30T03:49:34;22.95;;;8.73;;
64029;SDS011;50277;52.064;4.492;2023-09-30T03:51:59;16.58;;;8.10;;
64029;SDS011;50277;52.064;4.492;2023-09-30T03:54:25;16.92;;;8.52;;
64029;SDS011;50277;52.064;4.492;2023-09-30T03:56:51;15.77;;;7.80;;
64029;SDS011;50277;52.064;4.492;2023-09-30T03:59:17;15.32;;;8.05;;
64029;SDS011;50277;52.064;4.492;2023-09-30T04:01:43;13.38;;;8.75;;
64029;SDS011;50277;52.064;4.492;2023-09-30T04:04:09;15.27;;;8.52;;
64029;SDS011;50277;52.064;4.492;2023-09-30T04:06:35;18.25;;;9.38;;
64029;SDS011;50277;52.064;4.492;2023-09-30T04:09:03;15.02;;;8.25;;
64029;SDS011;50277;52.064;4.492;2023-09-30T04:11:34;19.00;;;9.18;;
64029;SDS011;50277;52.064;4.492;2023-09-30T04:13:59;17.52;;;8.85;;
64029;SDS011;50277;52.064;4.492;2023-09-30T04:16:25;16.90;;;8.73;;
64029;SDS011;50277;52.064;4.492;2023-09-30T04:18:53;17.65;;;8.57;;
64029;SDS011;50277;52.064;4.492;2023-09-30T04:21:19;16.42;;;8.55;;
64029;SDS011;50277;52.064;4.492;2023-09-30T04:23:44;20.42;;;9.60;;
64029;SDS011;50277;52.064;4.492;2023-09-30T04:26:11;19.13;;;10.05;;
64029;SDS011;50277;52.064;4.492;2023-09-30T04:28:36;16.35;;;9.50;;
64029;SDS011;50277;52.064;4.492;2023-09-30T04:31:02;18.23;;;9.23;;
64029;SDS011;50277;52.064;4.492;2023-09-30T04:33:28;16.95;;;8.73;;
64029;SDS011;50277;52.064;4.492;2023-09-30T04:35:53;18.23;;;10.00;;
64029;SDS011;50277;52.064;4.492;2023-09-30T04:38:19;18.85;;;10.07;;
64029;SDS011;50277;52.064;4.492;2023-09-30T04:40:44;15.38;;;9.10;;
64029;SDS011;50277;52.064;4.492;2023-09-30T04:45:39;24.00;;;9.48;;
64029;SDS011;50277;52.064;4.492;2023-09-30T04:48:05;21.33;;;10.25;;
64029;SDS011;50277;52.064;4.492;2023-09-30T04:50:30;18.73;;;9.45;;
64029;SDS011;50277;52.064;4.492;2023-09-30T04:52:56;20.17;;;9.25;;
64029;SDS011;50277;52.064;4.492;2023-09-30T04:55:22;21.63;;;10.35;;
64029;SDS011;50277;52.064;4.492;2023-09-30T04:57:48;18.65;;;10.32;;
64029;SDS011;50277;52.064;4.492;2023-09-30T05:00:14;15.05;;;9.60;;
64029;SDS011;50277;52.064;4.492;2023-09-30T05:02:42;19.75;;;10.77;;
64029;SDS011;50277;52.064;4.492;2023-09-30T05:05:09;19.13;;;11.02;;
64029;SDS011;50277;52.064;4.492;2023-09-30T05:07:35;20.15;;;10.63;;
64029;SDS011;50277;52.064;4.492;2023-09-30T05:10:01;20.20;;;11.55;;
64029;SDS011;50277;52.064;4.492;2023-09-30T05:12:30;22.33;;;12.05;;
64029;SDS011;50277;52.064;4.492;2023-09-30T05:14:55;28.23;;;12.35;;
64029;SDS011;50277;52.064;4.492;2023-09-30T05:17:20;19.02;;;10.70;;
64029;SDS011;50277;52.064;4.492;2023-09-30T05:19:46;18.58;;;10.75;;
64029;SDS011;50277;52.064;4.492;2023-09-30T05:22:12;19.10;;;11.68;;
64029;SDS011;50277;52.064;4.492;2023-09-30T05:24:37;19.15;;;10.80;;
64029;SDS011;50277;52.064;4.492;2023-09-30T05:27:02;21.50;;;11.02;;
64029;SDS011;50277;52.064;4.492;2023-09-30T05:29:28;30.17;;;12.40;;
64029;SDS011;50277;52.064;4.492;2023-09-30T05:31:54;20.88;;;11.98;;
64029;SDS011;50277;52.064;4.492;2023-09-30T05:34:19;18.85;;;12.23;;
64029;SDS011;50277;52.064;4.492;2023-09-30T05:36:45;22.55;;;12.75;;
64029;SDS011;50277;52.064;4.492;2023-09-30T05:39:10;20.73;;;12.63;;
64029;SDS011;50277;52.064;4.492;2023-09-30T05:41:36;23.20;;;12.13;;
64029;SDS011;50277;52.064;4.492;2023-09-30T05:44:02;23.67;;;12.20;;
64029;SDS011;50277;52.064;4.492;2023-09-30T05:46:29;19.83;;;11.98;;
64029;SDS011;50277;52.064;4.492;2023-09-30T05:48:55;22.50;;;12.50;;
64029;SDS011;50277;52.064;4.492;2023-09-30T05:51:21;20.30;;;13.77;;
64029;SDS011;50277;52.064;4.492;2023-09-30T05:53:46;21.55;;;13.80;;
64029;SDS011;50277;52.064;4.492;2023-09-30T05:56:13;23.33;;;13.77;;
64029;SDS011;50277;52.064;4.492;2023-09-30T05:58:40;17.58;;;13.13;;
64029;SDS011;50277;52.064;4.492;2023-09-30T06:01:09;21.13;;;14.43;;
64029;SDS011;50277;52.064;4.492;2023-09-30T06:03:36;25.20;;;13.88;;
64029;SDS011;50277;52.064;4.492;2023-09-30T06:08:35;21.15;;;13.20;;
64029;SDS011;50277;52.064;4.492;2023-09-30T06:11:02;21.27;;;13.48;;
64029;SDS011;50277;52.064;4.492;2023-09-30T06:13:27;24.58;;;15.02;;
64029;SDS011;50277;52.064;4.492;2023-09-30T06:15:55;28.90;;;15.83;;
64029;SDS011;50277;52.064;4.492;2023-09-30T06:18:20;26.90;;;15.23;;
64029;SDS011;50277;52.064;4.492;2023-09-30T06:20:46;22.08;;;14.20;;
64029;SDS011;50277;52.064;4.492;2023-09-30T06:23:11;26.30;;;14.13;;
64029;SDS011;50277;52.064;4.492;2023-09-30T06:25:36;30.15;;;13.35;;
64029;SDS011;50277;52.064;4.492;2023-09-30T06:28:02;23.60;;;13.43;;
64029;SDS011;50277;52.064;4.492;2023-09-30T06:30:28;25.15;;;13.27;;
64029;SDS011;50277;52.064;4.492;2023-09-30T06:32:59;21.10;;;12.93;;
64029;SDS011;50277;52.064;4.492;2023-09-30T06:35:25;22.23;;;12.10;;
64029;SDS011;50277;52.064;4.492;2023-09-30T06:37:51;16.38;;;11.05;;
64029;SDS011;50277;52.064;4.492;2023-09-30T06:40:17;18.92;;;12.20;;
64029;SDS011;50277;52.064;4.492;2023-09-30T06:42:42;23.85;;;13.32;;
64029;SDS011;50277;52.064;4.492;2023-09-30T06:45:08;18.95;;;11.88;;
64029;SDS011;50277;52.064;4.492;2023-09-30T06:47:35;19.50;;;11.77;;
64029;SDS011;50277;52.064;4.492;2023-09-30T06:50:01;18.83;;;11.15;;
64029;SDS011;50277;52.064;4.492;2023-09-30T06:52:35;21.63;;;11.93;;
64029;SDS011;50277;52.064;4.492;2023-09-30T06:55:03;27.45;;;12.20;;
64029;SDS011;50277;52.064;4.492;2023-09-30T06:57:34;17.52;;;11.40;;
64029;SDS011;50277;52.064;4.492;2023-09-30T07:00:01;22.10;;;12.85;;
64029;SDS011;50277;52.064;4.492;2023-09-30T07:02:33;21.65;;;12.35;;
64029;SDS011;50277;52.064;4.492;2023-09-30T07:04:58;22.67;;;12.20;;
64029;SDS011;50277;52.064;4.492;2023-09-30T07:07:23;19.15;;;11.48;;
64029;SDS011;50277;52.064;4.492;2023-09-30T07:09:48;25.70;;;12.95;;
64029;SDS011;50277;52.064;4.492;2023-09-30T07:12:14;17.65;;;11.43;;
64029;SDS011;50277;52.064;4.492;2023-09-30T07:14:40;25.27;;;12.27;;
64029;SDS011;50277;52.064;4.492;2023-09-30T07:17:05;14.45;;;10.82;;
64029;SDS011;50277;52.064;4.492;2023-09-30T07:19:31;19.33;;;10.30;;
64029;SDS011;50277;52.064;4.492;2023-09-30T07:21:56;20.30;;;9.85;;
64029;SDS011;50277;52.064;4.492;2023-09-30T07:24:21;14.07;;;8.82;;
64029;SDS011;50277;52.064;4.492;2023-09-30T07:26:47;19.10;;;9.80;;
64029;SDS011;50277;52.064;4.492;2023-09-30T07:29:12;15.68;;;9.20;;
64029;SDS011;50277;52.064;4.492;2023-09-30T07:31:37;16.75;;;10.63;;
64029;SDS011;50277;52.064;4.492;2023-09-30T07:34:03;14.95;;;8.90;;
64029;SDS011;50277;52.064;4.492;2023-09-30T07:36:28;16.98;;;9.45;;
64029;SDS011;50277;52.064;4.492;2023-09-30T07:38:54;13.30;;;8.45;;
64029;SDS011;50277;52.064;4.492;2023-09-30T07:41:19;16.05;;;8.88;;
64029;SDS011;50277;52.064;4.492;2023-09-30T09:13:07;8.27;;;5.30;;
64029;SDS011;50277;52.064;4.492;2023-09-30T09:15:33;10.52;;;5.75;;
64029;SDS011;50277;52.064;4.492;2023-09-30T09:17:58;9.20;;;5.60;;
64029;SDS011;50277;52.064;4.492;2023-09-30T09:20:25;12.98;;;5.00;;
64029;SDS011;50277;52.064;4.492;2023-09-30T09:22:53;9.88;;;5.88;;
64029;SDS011;50277;52.064;4.492;2023-09-30T09:25:21;12.52;;;5.97;;
64029;SDS011;50277;52.064;4.492;2023-09-30T09:27:48;11.57;;;5.78;;
64029;SDS011;50277;52.064;4.492;2023-09-30T09:30:14;11.93;;;5.88;;
64029;SDS011;50277;52.064;4.492;2023-09-30T09:32:50;10.70;;;5.97;;
64029;SDS011;50277;52.064;4.492;2023-09-30T09:35:19;11.40;;;5.65;;
64029;SDS011;50277;52.064;4.492;2023-09-30T09:40:28;10.83;;;5.83;;
64029;SDS011;50277;52.064;4.492;2023-09-30T09:42:55;9.60;;;5.40;;
64029;SDS011;50277;52.064;4.492;2023-09-30T09:45:22;13.17;;;5.63;;
64029;SDS011;50277;52.064;4.492;2023-09-30T09:47:49;7.75;;;5.10;;
64029;SDS011;50277;52.064;4.492;2023-09-30T09:50:16;10.07;;;4.65;;
64029;SDS011;50277;52.064;4.492;2023-09-30T09:52:42;8.32;;;4.78;;
64029;SDS011;50277;52.064;4.492;2023-09-30T09:55:09;7.63;;;4.35;;
64029;SDS011;50277;52.064;4.492;2023-09-30T09:57:35;10.43;;;5.07;;
64029;SDS011;50277;52.064;4.492;2023-09-30T10:00:01;9.10;;;4.18;;
64029;SDS011;50277;52.064;4.492;2023-09-30T10:02:30;8.13;;;4.10;;
64029;SDS011;50277;52.064;4.492;2023-09-30T10:04:55;8.45;;;3.95;;
64029;SDS011;50277;52.064;4.492;2023-09-30T10:07:21;8.70;;;4.28;;
64029;SDS011;50277;52.064;4.492;2023-09-30T10:09:49;8.90;;;4.00;;
64029;SDS011;50277;52.064;4.492;2023-09-30T10:12:16;9.05;;;3.78;;
64029;SDS011;50277;52.064;4.492;2023-09-30T10:14:43;7.30;;;3.17;;
64029;SDS011;50277;52.064;4.492;2023-09-30T10:17:09;7.10;;;3.13;;
64029;SDS011;50277;52.064;4.492;2023-09-30T10:19:34;10.23;;;3.70;;
64029;SDS011;50277;52.064;4.492;2023-09-30T10:24:42;10.57;;;3.25;;
64029;SDS011;50277;52.064;4.492;2023-09-30T10:37:45;7.80;;;3.42;;
64029;SDS011;50277;52.064;4.492;2023-09-30T10:40:26;6.53;;;2.80;;
64029;SDS011;50277;52.064;4.492;2023-09-30T10:42:52;8.77;;;3.75;;
64029;SDS011;50277;52.064;4.492;2023-09-30T10:50:57;10.20;;;5.25;;
64029;SDS011;50277;52.064;4.492;2023-09-30T10:53:29;7.68;;;3.88;;
64029;SDS011;50277;52.064;4.492;2023-09-30T10:55:58;7.78;;;3.00;;
64029;SDS011;50277;52.064;4.492;2023-09-30T11:01:09;10.18;;;3.45;;
64029;SDS011;50277;52.064;4.492;2023-09-30T11:03:35;6.70;;;3.25;;
64029;SDS011;50277;52.064;4.492;2023-09-30T11:06:01;7.57;;;3.22;;
64029;SDS011;50277;52.064;4.492;2023-09-30T11:08:29;7.93;;;3.10;;
64029;SDS011;50277;52.064;4.492;2023-09-30T11:10:57;4.30;;;2.58;;
64029;SDS011;50277;52.064;4.492;2023-09-30T11:13:25;7.63;;;3.10;;
64029;SDS011;50277;52.064;4.492;2023-09-30T11:16:03;5.85;;;2.67;;
64029;SDS011;50277;52.064;4.492;2023-09-30T11:18:32;8.68;;;3.15;;
64029;SDS011;50277;52.064;4.492;2023-09-30T11:21:10;8.60;;;3.42;;
64029;SDS011;50277;52.064;4.492;2023-09-30T11:23:38;5.82;;;3.05;;
64029;SDS011;50277;52.064;4.492;2023-09-30T11:26:04;11.25;;;4.15;;
64029;SDS011;50277;52.064;4.492;2023-09-30T11:28:36;9.52;;;3.45;;
64029;SDS011;50277;52.064;4.492;2023-09-30T11:31:03;10.20;;;3.40;;
64029;SDS011;50277;52.064;4.492;2023-09-30T11:33:29;9.40;;;3.72;;
64029;SDS011;50277;52.064;4.492;2023-09-30T11:36:04;8.43;;;3.63;;
64029;SDS011;50277;52.064;4.492;2023-09-30T11:38:31;10.18;;;3.13;;
64029;SDS011;50277;52.064;4.492;2023-09-30T11:41:03;10.02;;;3.88;;
64029;SDS011;50277;52.064;4.492;2023-09-30T11:43:31;9.13;;;3.35;;
64029;SDS011;50277;52.064;4.492;2023-09-30T11:46:07;9.57;;;3.38;;
64029;SDS011;50277;52.064;4.492;2023-09-30T11:48:34;7.43;;;3.10;;
64029;SDS011;50277;52.064;4.492;2023-09-30T11:51:23;11.55;;;3.63;;
64029;SDS011;50277;52.064;4.492;2023-09-30T11:53:49;6.72;;;2.85;;
64029;SDS011;50277;52.064;4.492;2023-09-30T11:56:15;13.20;;;3.45;;
64029;SDS011;50277;52.064;4.492;2023-09-30T11:58:40;7.53;;;3.35;;
64029;SDS011;50277;52.064;4.492;2023-09-30T12:01:06;12.32;;;3.83;;
64029;SDS011;50277;52.064;4.492;2023-09-30T12:03:31;8.70;;;3.22;;
64029;SDS011;50277;52.064;4.492;2023-09-30T12:06:01;8.85;;;3.05;;
64029;SDS011;50277;52.064;4.492;2023-09-30T12:08:27;8.10;;;3.50;;
64029;SDS011;50277;52.064;4.492;2023-09-30T12:10:54;11.50;;;3.90;;
64029;SDS011;50277;52.064;4.492;2023-09-30T12:13:20;7.50;;;3.35;;
64029;SDS011;50277;52.064;4.492;2023-09-30T12:15:45;8.07;;;3.60;;
64029;SDS011;50277;52.064;4.492;2023-09-30T12:18:11;6.70;;;3.00;;
64029;SDS011;50277;52.064;4.492;2023-09-30T12:20:38;8.23;;;3.13;;
64029;SDS011;50277;52.064;4.492;2023-09-30T12:23:06;10.70;;;3.78;;
64029;SDS011;50277;52.064;4.492;2023-09-30T12:25:31;9.02;;;3.35;;
64029;SDS011;50277;52.064;4.492;2023-09-30T12:27:58;8.50;;;3.63;;
64029;SDS011;50277;52.064;4.492;2023-09-30T12:30:23;12.45;;;3.97;;
64029;SDS011;50277;52.064;4.492;2023-09-30T12:32:49;10.32;;;4.40;;
64029;SDS011;50277;52.064;4.492;2023-09-30T12:35:14;9.10;;;4.00;;
64029;SDS011;50277;52.064;4.492;2023-09-30T12:37:39;9.90;;;4.10;;
64029;SDS011;50277;52.064;4.492;2023-09-30T12:40:05;13.70;;;4.15;;
64029;SDS011;50277;52.064;4.492;2023-09-30T12:42:36;6.80;;;3.17;;
64029;SDS011;50277;52.064;4.492;2023-09-30T12:45:02;12.43;;;3.72;;
64029;SDS011;50277;52.064;4.492;2023-09-30T12:47:27;13.07;;;4.28;;
64029;SDS011;50277;52.064;4.492;2023-09-30T12:49:53;9.38;;;3.75;;
64029;SDS011;50277;52.064;4.492;2023-09-30T12:52:19;8.90;;;3.80;;
64029;SDS011;50277;52.064;4.492;2023-09-30T12:54:45;10.48;;;4.13;;
64029;SDS011;50277;52.064;4.492;2023-09-30T12:57:10;11.65;;;4.22;;
64029;SDS011;50277;52.064;4.492;2023-09-30T12:59:38;8.60;;;3.75;;
64029;SDS011;50277;52.064;4.492;2023-09-30T13:02:04;10.40;;;4.68;;
64029;SDS011;50277;52.064;4.492;2023-09-30T13:04:30;10.88;;;4.40;;
64029;SDS011;50277;52.064;4.492;2023-09-30T13:06:55;12.07;;;4.78;;
64029;SDS011;50277;52.064;4.492;2023-09-30T13:09:20;9.75;;;5.45;;
64029;SDS011;50277;52.064;4.492;2023-09-30T13:11:46;11.63;;;3.92;;
64029;SDS011;50277;52.064;4.492;2023-09-30T13:14:11;8.55;;;3.40;;
64029;SDS011;50277;52.064;4.492;2023-09-30T13:16:37;8.43;;;3.85;;
64029;SDS011;50277;52.064;4.492;2023-09-30T13:19:03;10.32;;;3.85;;
64029;SDS011;50277;52.064;4.492;2023-09-30T13:21:29;10.60;;;3.50;;
64029;SDS011;50277;52.064;4.492;2023-09-30T13:23:54;8.23;;;3.30;;
64029;SDS011;50277;52.064;4.492;2023-09-30T13:26:20;12.45;;;4.10;;
64029;SDS011;50277;52.064;4.492;2023-09-30T13:28:45;7.57;;;3.47;;
64029;SDS011;50277;52.064;4.492;2023-09-30T13:31:10;8.10;;;3.42;;
64029;SDS011;50277;52.064;4.492;2023-09-30T13:33:36;10.35;;;3.53;;
64029;SDS011;50277;52.064;4.492;2023-09-30T13:36:01;12.73;;;3.60;;
64029;SDS011;50277;52.064;4.492;2023-09-30T13:38:27;11.50;;;3.97;;
64029;SDS011;50277;52.064;4.492;2023-09-30T13:40:53;7.40;;;3.25;;
64029;SDS011;50277;52.064;4.492;2023-09-30T13:43:18;10.48;;;3.50;;
64029;SDS011;50277;52.064;4.492;2023-09-30T13:45:44;10.32;;;3.72;;
64029;SDS011;50277;52.064;4.492;2023-09-30T13:48:09;7.35;;;3.00;;
64029;SDS011;50277;52.064;4.492;2023-09-30T13:50:36;12.48;;;3.80;;
64029;SDS011;50277;52.064;4.492;2023-09-30T13:53:01;7.10;;;2.95;;
64029;SDS011;50277;52.064;4.492;2023-09-30T13:55:27;10.80;;;3.33;;
64029;SDS011;50277;52.064;4.492;2023-09-30T13:57:53;10.48;;;2.90;;
64029;SDS011;50277;52.064;4.492;2023-09-30T14:00:18;6.10;;;2.85;;
64029;SDS011;50277;52.064;4.492;2023-09-30T14:02:43;9.80;;;3.13;;
64029;SDS011;50277;52.064;4.492;2023-09-30T14:05:09;10.50;;;3.33;;
64029;SDS011;50277;52.064;4.492;2023-09-30T14:07:35;12.93;;;4.20;;
64029;SDS011;50277;52.064;4.492;2023-09-30T14:10:02;6.80;;;3.10;;
64029;SDS011;50277;52.064;4.492;2023-09-30T14:12:28;11.88;;;5.50;;
64029;SDS011;50277;52.064;4.492;2023-09-30T14:14:54;11.98;;;4.35;;
64029;SDS011;50277;52.064;4.492;2023-09-30T14:17:19;11.43;;;3.28;;
64029;SDS011;50277;52.064;4.492;2023-09-30T14:19:45;9.27;;;2.90;;
64029;SDS011;50277;52.064;4.492;2023-09-30T14:22:10;8.52;;;2.90;;
64029;SDS011;50277;52.064;4.492;2023-09-30T14:24:36;10.35;;;3.15;;
64029;SDS011;50277;52.064;4.492;2023-09-30T14:27:02;12.40;;;3.60;;
64029;SDS011;50277;52.064;4.492;2023-09-30T14:29:28;6.68;;;2.92;;
64029;SDS011;50277;52.064;4.492;2023-09-30T14:31:53;8.02;;;3.30;;
64029;SDS011;50277;52.064;4.492;2023-09-30T14:34:19;5.97;;;2.55;;
64029;SDS011;50277;52.064;4.492;2023-09-30T14:36:44;7.10;;;2.85;;
64029;SDS011;50277;52.064;4.492;2023-09-30T14:39:10;9.85;;;3.33;;
64029;SDS011;50277;52.064;4.492;2023-09-30T14:41:35;9.82;;;3.33;;
64029;SDS011;50277;52.064;4.492;2023-09-30T14:44:01;8.52;;;2.80;;
64029;SDS011;50277;52.064;4.492;2023-09-30T14:46:28;8.43;;;2.75;;
64029;SDS011;50277;52.064;4.492;2023-09-30T14:48:53;9.27;;;2.90;;
64029;SDS011;50277;52.064;4.492;2023-09-30T14:51:22;9.57;;;3.30;;
64029;SDS011;50277;52.064;4.492;2023-09-30T14:53:48;10.45;;;2.95;;
64029;SDS011;50277;52.064;4.492;2023-09-30T14:56:19;8.68;;;2.63;;
64029;SDS011;50277;52.064;4.492;2023-09-30T14:58:45;9.05;;;2.65;;
64029;SDS011;50277;52.064;4.492;2023-09-30T15:01:11;8.52;;;2.60;;
64029;SDS011;50277;52.064;4.492;2023-09-30T15:03:36;7.70;;;2.80;;
64029;SDS011;50277;52.064;4.492;2023-09-30T15:06:04;10.40;;;3.08;;
64029;SDS011;50277;52.064;4.492;2023-09-30T15:08:30;8.75;;;3.28;;
64029;SDS011;50277;52.064;4.492;2023-09-30T15:10:57;7.85;;;2.90;;
64029;SDS011;50277;52.064;4.492;2023-09-30T15:13:25;10.55;;;3.33;;
64029;SDS011;50277;52.064;4.492;2023-09-30T15:15:51;9.52;;;4.00;;
64029;SDS011;50277;52.064;4.492;2023-09-30T15:18:17;9.73;;;3.42;;
64029;SDS011;50277;52.064;4.492;2023-09-30T15:20:42;9.90;;;3.30;;
64029;SDS011;50277;52.064;4.492;2023-09-30T15:23:09;8.43;;;3.28;;
64029;SDS011;50277;52.064;4.492;2023-09-30T15:25:39;7.65;;;3.13;;
64029;SDS011;50277;52.064;4.492;2023-09-30T15:28:06;10.38;;;2.95;;
64029;SDS011;50277;52.064;4.492;2023-09-30T15:30:32;10.07;;;3.47;;
64029;SDS011;50277;52.064;4.492;2023-09-30T15:32:58;8.23;;;3.03;;
64029;SDS011;50277;52.064;4.492;2023-09-30T15:35:23;10.32;;;3.22;;
64029;SDS011;50277;52.064;4.492;2023-09-30T16:43:06;7.30;;;2.72;;
64029;SDS011;50277;52.064;4.492;2023-09-30T16:45:31;10.38;;;3.30;;
64029;SDS011;50277;52.064;4.492;2023-09-30T16:47:57;7.32;;;2.95;;
64029;SDS011;50277;52.064;4.492;2023-09-30T16:50:22;8.00;;;3.35;;
64029;SDS011;50277;52.064;4.492;2023-09-30T16:52:48;7.80;;;3.28;;
64029;SDS011;50277;52.064;4.492;2023-09-30T16:55:13;8.27;;;2.80;;
64029;SDS011;50277;52.064;4.492;2023-09-30T16:57:39;9.20;;;3.00;;
64029;SDS011;50277;52.064;4.492;2023-09-30T17:00:06;10.23;;;3.47;;
64029;SDS011;50277;52.064;4.492;2023-09-30T17:02:31;8.05;;;2.92;;
64029;SDS011;50277;52.064;4.492;2023-09-30T17:04:57;8.15;;;3.20;;
64029;SDS011;50277;52.064;4.492;2023-09-30T17:07:27;8.32;;;2.97;;
64029;SDS011;50277;52.064;4.492;2023-09-30T17:09:52;6.97;;;2.88;;
64029;SDS011;50277;52.064;4.492;2023-09-30T17:12:17;7.30;;;3.20;;
64029;SDS011;50277;52.064;4.492;2023-09-30T17:14:43;10.85;;;3.88;;
64029;SDS011;50277;52.064;4.492;2023-09-30T17:17:08;9.73;;;3.78;;
64029;SDS011;50277;52.064;4.492;2023-09-30T17:19:33;8.65;;;3.92;;
64029;SDS011;50277;52.064;4.492;2023-09-30T17:21:59;11.70;;;3.75;;
64029;SDS011;50277;52.064;4.492;2023-09-30T17:24:24;10.32;;;3.42;;
64029;SDS011;50277;52.064;4.492;2023-09-30T17:26:50;7.15;;;3.53;;
64029;SDS011;50277;52.064;4.492;2023-09-30T17:29:15;8.40;;;3.13;;
64029;SDS011;50277;52.064;4.492;2023-09-30T17:31:40;8.75;;;3.40;;
64029;SDS011;50277;52.064;4.492;2023-09-30T17:34:06;6.90;;;3.28;;